KSGU

St George Regional Airport

St George, Utah, USA
METAR KSGU 182256Z AUTO 23014G18KT 10SM BKN110 38/12 A2994 RMK AO2 SLP094 T03830117
Observed Flight Rules
Aug-18 @ 22:56 UTC (51 minutes ago) Visual Flight Rules
Wind Visibility Clouds
230° at 14 knots
 Gusting to 18 knots
10 miles
  • Broken at 11,000' AGL
Temperatures Readings
Current 38°C / 100°F
Dewpoint 12°C / 54°F
Humidity 21%
Altimeter 29.94" Hg
Pressure 1009.4 hPa
Elevation 896
METAR KSGU 182256Z AUTO 23014G18KT 10SM BKN110 38/12 A2994 RMK AO2 SLP094 T03830117
Observed Flight Rules
Aug-18 @ 22:56 UTC
(51 minutes ago)
VFR
Wind Visibility
230° at 14 knots
 Gusting to 18 knots
10 miles
Clouds
  • Broken at 11,000' AGL
Temperature Dewpoint
38°C / 100°F 12°C / 54°F
Humidity Altimeter Pressure
21% 29.94" Hg 1009.4 hPa